首页
METAR-TAF:

METAR-TAF

机场 :

New Orleans Naval Air Station Joint Reserve Base (Alvin Callender Field)

新奥尔良, 路易斯安那州, 美国

纬度: 29-50-14N, 经度: 090-01-28W, 海拔: 0米

当前天气观测

该预报发布于23分钟前的09:55 UTC
风速3节,风向南转西南
温度 26°C
湿度 89%
气压 1015 hPa
能見度: 16.1公里
天空无云

METAR: KNBG 200955Z AUTO 21003KT 10SM CLR 26/24 A2998 RMK AO2 SLP152 T02610244 $

时间: 05:18 (10:18 UTC)

预报

预报有效从20日的 07点(UTC)到 21日的 07点(UTC)
风速7节,风向西转西南
能见度10公里或以上
多云层高于3000英尺, 积雨云.
多云层高于4000英尺
阴天层高于15000英尺
附近有雷暴
短暂存在
从 20日的 12点(UTC)到 20日的 17点(UTC)
风速20节,风向多变,有时为30节阵风
能見度: 2400
多云层高于3000英尺, 积雨云.
阴天层高于4000英尺
雷暴, 雨
成为
从 20日的 18点(UTC)到 20日的 20点(UTC)
风速8节,风向西
能见度10公里或以上
多云层高于3000英尺
多云层高于5000英尺
多云层高于25000英尺
附近有阵雨
短暂存在
从 20日的 21点(UTC)到 21日的 01点(UTC)
风速7节,风向
能見度: 6000
多云层高于2000英尺
多云层高于5000英尺
阴天层高于20000英尺
阵雨
从 21日的 0200点(UTC)
风速6节,风向多变
能見度: 2012
少量云层高于2000英尺
散云层高于8000英尺
多云层高于20000英尺

TAF: KNBG 2007/2107 24007KT 9999 VCTS BKN030CB BKN040 OVC150 QNH2998INS TEMPO 2012/2017 VRB20G30KT 2400 TSRA BKN030CB OVC040 BECMG 2018/2020 26008KT 9999 VCSH BKN030 BKN050 BKN250 QNH2994INS TEMPO 2021/2101 18007KT 6000 SHRA BKN020 BKN050 OVC200 FM210200 VRB06KT FEW020 SCT080 BKN200 QNH2999INS AUTOMATED SENSOR METWATCH 2007 TIL 2012 TX24/2011Z TN32/2019Z FN00276

超过4000个机场的气象观测和天气预报(METAR&TAF报告)。

可查询的气象台以黄色和红色小点在地图上表示。

将鼠标移到小点上方,可查看气象台名称。

然后点击查看天气观测和预报。

如需切换地图:点击带黑十字的绿色按钮放大地图;点击带横线的绿色按钮缩小地图;或者点击绿色箭头查看邻近地区的地图。


METAR-TAF: